Time;durP1;ratioP1;P1;durP2;ratioP2;P2;SDS_P1;SDS_P2;PMS_P1;PMS_P2;Temp;Humidity;BMP_temperature;BMP_pressure;BME280_temperature;BME280_humidity;BME280_pressure;Samples;Min_cycle;Max_cycle;Signal;HPM_P1;HPM_P2
2022/08/15 00:00:43;;;;;;;13.93;12.52;;;20.60;99.90;;;;;;5054922;28;20032;-25
2022/08/15 00:03:29;;;;;;;12.95;11.65;;;20.50;99.90;;;;;;5054651;28;20036;-26
2022/08/15 00:05:58;;;;;;;13.48;12.20;;;20.60;99.90;;;;;;5037977;28;20051;-26
2022/08/15 00:08:24;;;;;;;14.13;12.68;;;20.60;99.90;;;;;;5054725;28;20098;-26
2022/08/15 00:10:50;;;;;;;14.23;12.80;;;20.60;99.90;;;;;;5054287;28;20044;-26
2022/08/15 00:13:24;;;;;;;13.07;11.57;;;20.60;99.90;;;;;;5055003;28;20448;-26
2022/08/15 00:15:51;;;;;;;12.38;11.32;;;20.60;99.90;;;;;;5054103;28;20257;-25
2022/08/15 00:18:18;;;;;;;12.05;10.65;;;20.60;99.90;;;;;;5054318;28;20114;-25
2022/08/15 00:20:44;;;;;;;12.57;11.40;;;20.60;99.90;;;;;;5054678;28;20040;-26
2022/08/15 00:23:17;;;;;;;13.23;11.70;;;20.60;99.90;;;;;;5054522;28;20033;-26
2022/08/15 00:25:48;;;;;;;13.65;12.35;;;20.60;99.90;;;;;;5071367;28;20519;-27
2022/08/15 00:28:14;;;;;;;13.70;12.38;;;20.70;99.90;;;;;;5054189;28;20127;-26
2022/08/15 00:30:43;;;;;;;13.65;12.25;;;20.70;99.90;;;;;;5054373;28;20048;-25
2022/08/15 00:33:09;;;;;;;12.65;11.55;;;20.70;99.90;;;;;;5053785;28;20119;-25
2022/08/15 00:35:36;;;;;;;14.32;12.98;;;20.70;99.90;;;;;;5054307;28;20091;-26
2022/08/15 00:38:29;;;;;;;12.45;11.45;;;20.70;99.90;;;;;;5054107;28;20525;-26
2022/08/15 00:43:53;;;;;;;14.07;12.05;;;20.70;99.90;;;;;;5071783;28;20274;-25
2022/08/15 00:46:18;;;;;;;13.30;11.82;;;20.70;99.90;;;;;;5053944;28;20482;-28
2022/08/15 00:48:44;;;;;;;12.88;11.57;;;20.70;99.90;;;;;;5053926;28;20106;-26
2022/08/15 00:51:22;;;;;;;12.82;11.32;;;20.70;99.90;;;;;;5054173;28;20438;-25
2022/08/15 00:53:53;;;;;;;13.15;11.85;;;20.70;99.90;;;;;;5053729;28;20090;-25
2022/08/15 00:56:21;;;;;;;12.70;11.40;;;20.80;99.90;;;;;;5054270;28;20082;-25
2022/08/15 00:58:47;;;;;;;12.45;11.25;;;20.80;99.90;;;;;;5053867;28;20052;-27
2022/08/15 01:01:14;;;;;;;12.63;11.43;;;20.80;99.90;;;;;;5071941;28;20044;-25
2022/08/15 01:03:44;;;;;;;11.85;10.85;;;20.80;99.90;;;;;;5054072;28;20119;-25
2022/08/15 01:06:10;;;;;;;12.45;11.20;;;20.80;99.90;;;;;;5053817;28;20068;-25
2022/08/15 01:08:40;;;;;;;12.73;11.50;;;20.80;99.90;;;;;;5054003;28;20472;-25
2022/08/15 01:11:25;;;;;;;12.30;11.30;;;20.80;99.90;;;;;;5053767;28;20483;-27
2022/08/15 01:13:55;;;;;;;11.52;10.43;;;20.90;99.90;;;;;;5053683;28;20072;-31
2022/08/15 01:16:23;;;;;;;11.75;10.65;;;20.90;99.90;;;;;;5053977;28;20044;-25
2022/08/15 01:18:50;;;;;;;12.20;11.05;;;20.90;99.90;;;;;;5053567;28;20041;-26
2022/08/15 01:21:40;;;;;;;12.27;10.98;;;20.90;99.90;;;;;;5053472;28;20101;-26
2022/08/15 01:24:43;;;;;;;11.20;10.30;;;20.90;99.90;;;;;;5053927;28;20075;-27
2022/08/15 01:27:10;;;;;;;13.80;11.60;;;20.90;99.90;;;;;;5032953;28;20048;-26
2022/08/15 01:29:36;;;;;;;11.60;10.60;;;20.90;99.90;;;;;;5053234;28;20048;-26
2022/08/15 01:32:03;;;;;;;11.07;10.18;;;20.80;99.90;;;;;;5053457;28;20063;-25
2022/08/15 01:34:28;;;;;;;11.98;10.88;;;20.80;99.90;;;;;;5053527;28;20393;-25
2022/08/15 01:36:54;;;;;;;12.13;10.60;;;20.80;99.90;;;;;;5053477;28;20067;-25
2022/08/15 01:39:32;;;;;;;10.98;9.98;;;20.80;99.90;;;;;;5053311;28;20507;-25
2022/08/15 01:42:13;;;;;;;10.50;9.50;;;20.80;99.90;;;;;;5069842;28;20094;-26
2022/08/15 01:44:53;;;;;;;11.40;10.40;;;20.70;99.90;;;;;;5070435;28;20379;-26
2022/08/15 01:47:32;;;;;;;11.48;10.15;;;20.70;99.90;;;;;;5053651;28;20086;-26
2022/08/15 01:50:14;;;;;;;10.35;9.45;;;20.70;99.90;;;;;;5053083;28;20072;-26
2022/08/15 01:52:51;;;;;;;11.05;9.90;;;20.60;99.90;;;;;;5053289;28;20032;-26
2022/08/15 01:55:21;;;;;;;11.55;10.45;;;20.60;99.90;;;;;;5070194;28;20064;-26
2022/08/15 01:57:47;;;;;;;10.82;9.73;;;20.60;99.90;;;;;;5053848;28;20044;-25
2022/08/15 02:00:17;;;;;;;10.93;9.82;;;20.50;99.90;;;;;;5070466;28;20040;-27
2022/08/15 02:02:42;;;;;;;10.70;9.73;;;20.50;99.90;;;;;;5070305;28;20122;-26
2022/08/15 02:05:09;;;;;;;11.02;10.05;;;20.50;99.90;;;;;;5069793;28;20096;-28
2022/08/15 02:07:34;;;;;;;10.82;9.77;;;20.40;99.90;;;;;;5036386;28;20068;-25
2022/08/15 02:10:00;;;;;;;10.65;9.70;;;20.40;99.90;;;;;;5069836;28;20037;-27
2022/08/15 02:12:34;;;;;;;11.00;10.00;;;20.40;99.90;;;;;;5069625;28;20047;-26
2022/08/15 02:15:05;;;;;;;10.55;9.55;;;20.30;99.90;;;;;;5053175;28;20040;-25
2022/08/15 02:17:30;;;;;;;11.48;10.38;;;20.30;99.90;;;;;;5069885;28;20064;-26
2022/08/15 02:19:56;;;;;;;11.50;10.00;;;20.20;99.90;;;;;;5052637;28;20040;-27
2022/08/15 02:22:24;;;;;;;10.63;9.52;;;20.20;99.90;;;;;;5052936;28;20113;-25
2022/08/15 02:24:50;;;;;;;10.70;9.65;;;20.10;99.90;;;;;;5069263;28;20135;-27
2022/08/15 02:27:16;;;;;;;11.05;10.05;;;20.00;99.90;;;;;;5070691;28;20082;-25
2022/08/15 02:29:43;;;;;;;10.55;9.65;;;20.00;99.90;;;;;;5052989;28;20059;-26
2022/08/15 02:32:15;;;;;;;10.90;9.80;;;19.90;99.90;;;;;;5069786;28;20261;-25
2022/08/15 02:34:44;;;;;;;10.85;9.77;;;19.90;99.90;;;;;;5071924;28;20090;-27
2022/08/15 02:37:11;;;;;;;10.95;9.90;;;19.90;99.90;;;;;;5073084;28;20041;-26
2022/08/15 02:39:39;;;;;;;10.63;9.63;;;19.80;99.90;;;;;;5073188;28;20389;-26
2022/08/15 02:42:05;;;;;;;10.77;9.90;;;19.80;99.90;;;;;;5072928;28;20040;-25
2022/08/15 02:44:31;;;;;;;9.90;9.02;;;19.70;99.90;;;;;;5056091;28;20406;-24
2022/08/15 02:46:57;;;;;;;11.05;10.13;;;19.70;99.90;;;;;;5072934;28;20036;-25
2022/08/15 02:49:24;;;;;;;11.77;10.68;;;19.70;99.90;;;;;;5039461;28;20398;-25
2022/08/15 02:51:51;;;;;;;10.77;9.82;;;19.70;99.90;;;;;;5039454;28;20044;-26
2022/08/15 02:54:19;;;;;;;11.38;10.30;;;19.60;99.90;;;;;;5056120;28;20044;-26
2022/08/15 02:56:45;;;;;;;11.75;10.65;;;19.60;99.90;;;;;;5056157;28;20398;-26
2022/08/15 02:59:12;;;;;;;10.90;9.93;;;19.50;99.90;;;;;;5055909;28;20257;-27
2022/08/15 03:01:40;;;;;;;11.55;10.35;;;19.50;99.90;;;;;;5056365;28;20504;-26
2022/08/15 03:04:14;;;;;;;11.73;10.70;;;19.50;99.90;;;;;;5056160;28;20055;-25
2022/08/15 03:06:45;;;;;;;11.85;10.85;;;19.40;99.90;;;;;;5073917;28;20033;-25
2022/08/15 03:09:13;;;;;;;11.10;10.10;;;19.40;99.90;;;;;;5055633;28;20043;-25
2022/08/15 03:11:41;;;;;;;11.27;10.25;;;19.40;99.90;;;;;;5056323;28;20505;-25
2022/08/15 03:14:14;;;;;;;12.73;11.45;;;19.30;99.90;;;;;;5056104;28;20040;-25
2022/08/15 03:16:43;;;;;;;11.50;10.30;;;19.30;99.90;;;;;;5055838;28;20033;-25
2022/08/15 03:19:23;;;;;;;13.38;11.90;;;19.30;99.90;;;;;;5055658;28;20387;-25
2022/08/15 03:21:49;;;;;;;12.50;11.27;;;19.20;99.90;;;;;;5055478;28;20115;-25
2022/08/15 03:24:17;;;;;;;12.65;11.45;;;19.20;99.90;;;;;;5055765;28;20504;-25
2022/08/15 03:26:46;;;;;;;12.27;11.27;;;19.10;99.90;;;;;;5055523;28;20041;-27
2022/08/15 03:29:18;;;;;;;12.48;11.45;;;19.10;99.90;;;;;;5055512;28;20044;-25
2022/08/15 03:31:50;;;;;;;11.82;10.75;;;19.10;99.90;;;;;;5055576;28;20094;-27
2022/08/15 03:34:19;;;;;;;12.77;11.48;;;19.00;99.90;;;;;;5055104;28;20036;-25
2022/08/15 03:36:46;;;;;;;12.77;11.65;;;19.00;99.90;;;;;;5055599;28;20068;-25
2022/08/15 03:39:15;;;;;;;12.48;11.20;;;18.90;99.90;;;;;;5055147;28;20040;-26
2022/08/15 03:41:43;;;;;;;12.85;11.65;;;18.90;99.90;;;;;;5055095;28;20397;-25
2022/08/15 03:44:09;;;;;;;12.68;11.40;;;18.90;99.90;;;;;;5055122;28;20043;-26
2022/08/15 03:46:35;;;;;;;13.75;12.48;;;18.90;99.90;;;;;;5054713;28;20502;-26
2022/08/15 03:49:01;;;;;;;12.30;11.10;;;18.90;99.90;;;;;;5055338;28;20751;-26
2022/08/15 03:51:28;;;;;;;11.85;10.82;;;18.90;99.90;;;;;;5054940;28;20040;-25
2022/08/15 03:53:57;;;;;;;12.75;11.55;;;18.80;99.90;;;;;;5054859;28;20043;-25
2022/08/15 03:56:27;;;;;;;12.77;11.60;;;18.80;99.90;;;;;;5055217;28;20036;-25
2022/08/15 03:58:54;;;;;;;13.68;12.48;;;18.80;99.90;;;;;;5054684;28;20036;-25
2022/08/15 04:01:23;;;;;;;13.85;12.63;;;18.70;99.90;;;;;;5054998;28;20040;-24
2022/08/15 04:03:50;;;;;;;13.15;11.93;;;18.70;99.90;;;;;;5054786;28;20124;-25
2022/08/15 04:06:19;;;;;;;11.98;10.95;;;18.70;99.90;;;;;;5055189;28;20490;-24
2022/08/15 04:08:47;;;;;;;12.77;11.68;;;18.70;99.90;;;;;;5054960;28;20036;-26
2022/08/15 04:11:16;;;;;;;12.55;11.45;;;18.70;99.90;;;;;;5054729;28;20072;-25
2022/08/15 04:13:42;;;;;;;12.90;11.70;;;18.70;99.90;;;;;;5053946;28;20498;-26
2022/08/15 04:16:09;;;;;;;12.75;11.55;;;18.70;99.90;;;;;;5054932;28;20447;-25
2022/08/15 04:18:37;;;;;;;12.50;11.23;;;18.70;99.90;;;;;;5054345;28;20040;-26
2022/08/15 04:21:07;;;;;;;12.98;11.77;;;18.70;99.90;;;;;;5054814;28;20059;-25
2022/08/15 04:23:33;;;;;;;13.45;11.50;;;18.80;99.90;;;;;;5054684;28;20419;-25
2022/08/15 04:25:59;;;;;;;12.38;11.05;;;18.80;99.90;;;;;;5054737;28;20090;-25
2022/08/15 04:28:29;;;;;;;11.60;10.50;;;18.90;99.90;;;;;;5054282;28;20045;-25
2022/08/15 04:30:55;;;;;;;12.27;11.13;;;18.80;99.90;;;;;;5054391;28;20123;-25
2022/08/15 04:33:24;;;;;;;12.20;11.10;;;18.90;99.90;;;;;;5054147;28;20101;-25
2022/08/15 04:35:53;;;;;;;12.65;11.10;;;18.90;99.90;;;;;;5054185;28;20040;-26
2022/08/15 04:38:19;;;;;;;12.30;11.10;;;19.00;99.90;;;;;;5054366;28;20390;-25
2022/08/15 04:40:46;;;;;;;12.45;11.25;;;19.00;99.90;;;;;;5071995;28;20037;-25
2022/08/15 04:43:13;;;;;;;13.40;12.20;;;19.00;99.90;;;;;;5054160;28;20398;-26
2022/08/15 04:45:40;;;;;;;12.23;11.07;;;19.10;99.90;;;;;;5054300;28;20125;-27
2022/08/15 04:48:07;;;;;;;12.85;11.55;;;19.10;99.90;;;;;;5037382;28;20044;-25
2022/08/15 04:50:38;;;;;;;13.48;12.20;;;19.20;99.90;;;;;;5054489;28;20386;-25
2022/08/15 04:53:07;;;;;;;12.65;11.45;;;19.20;99.90;;;;;;5054049;28;20045;-25
2022/08/15 04:55:35;;;;;;;13.50;12.30;;;19.20;99.90;;;;;;5053477;28;20439;-25
2022/08/15 04:58:01;;;;;;;12.70;11.48;;;19.30;99.90;;;;;;5054076;28;20044;-28
2022/08/15 05:00:31;;;;;;;12.20;11.00;;;19.30;99.90;;;;;;5054400;28;20517;-27
2022/08/15 05:03:14;;;;;;;12.55;11.38;;;19.30;99.90;;;;;;5054045;28;20071;-25
2022/08/15 05:05:46;;;;;;;14.23;12.98;;;19.40;99.90;;;;;;5054017;28;20041;-26
2022/08/15 05:08:12;;;;;;;12.40;11.30;;;19.40;99.90;;;;;;5053568;28;20051;-25
2022/08/15 05:10:39;;;;;;;12.88;11.77;;;19.40;99.90;;;;;;5053868;28;20131;-26
2022/08/15 05:13:17;;;;;;;13.63;12.25;;;19.50;99.90;;;;;;5037122;28;20048;-26
2022/08/15 05:15:44;;;;;;;13.65;12.15;;;19.50;99.90;;;;;;5054244;28;20032;-26
2022/08/15 05:18:11;;;;;;;13.13;11.93;;;19.60;99.90;;;;;;5072224;28;20056;-25
2022/08/15 05:20:37;;;;;;;13.18;12.05;;;19.60;99.90;;;;;;5054383;28;20052;-25
2022/08/15 05:23:06;;;;;;;14.98;12.38;;;19.60;99.90;;;;;;5072236;28;20059;-26
2022/08/15 05:25:36;;;;;;;12.95;11.68;;;19.70;99.90;;;;;;5054416;28;20040;-30
2022/08/15 05:28:03;;;;;;;13.15;11.75;;;19.80;99.90;;;;;;5052589;28;20086;-31
2022/08/15 05:30:29;;;;;;;13.25;12.05;;;19.80;99.90;;;;;;5035918;28;20543;-30
2022/08/15 05:33:12;;;;;;;13.65;12.45;;;19.90;99.90;;;;;;5056875;28;20041;-28
2022/08/15 05:35:42;;;;;;;13.88;12.57;;;20.00;99.90;;;;;;5055411;28;20560;-29
2022/08/15 05:38:18;;;;;;;13.43;12.25;;;20.10;99.90;;;;;;5049383;28;20460;-32
2022/08/15 05:41:19;;;;;;;13.75;12.55;;;20.20;99.90;;;;;;5048335;28;20036;-30
2022/08/15 05:44:03;;;;;;;13.70;12.35;;;20.30;99.90;;;;;;5032579;28;20048;-31
2022/08/15 05:46:45;;;;;;;13.63;12.30;;;20.40;99.90;;;;;;5042164;28;20024;-29
2022/08/15 05:49:26;;;;;;;13.70;12.45;;;20.50;99.90;;;;;;5050929;28;20180;-27
2022/08/15 05:52:34;;;;;;;14.82;13.43;;;20.60;99.90;;;;;;5050049;28;20173;-31
2022/08/15 05:55:25;;;;;;;13.88;12.48;;;20.70;99.90;;;;;;5023561;28;20052;-30
2022/08/15 05:58:12;;;;;;;14.98;13.57;;;20.70;99.90;;;;;;5063107;28;20445;-29
2022/08/15 06:00:40;;;;;;;15.23;13.80;;;20.80;99.90;;;;;;5051994;28;20682;-32
2022/08/15 06:03:15;;;;;;;14.35;13.05;;;20.90;99.90;;;;;;5060287;28;20125;-30
2022/08/15 06:06:04;;;;;;;14.73;13.23;;;20.90;99.90;;;;;;5049390;28;20040;-31
2022/08/15 06:08:34;;;;;;;14.77;13.48;;;21.00;99.90;;;;;;5046174;28;20444;-28
2022/08/15 06:11:12;;;;;;;14.07;12.77;;;21.00;99.90;;;;;;5057879;28;20051;-26
2022/08/15 06:13:46;;;;;;;14.73;13.32;;;21.10;99.90;;;;;;5052689;28;20064;-26
2022/08/15 06:16:18;;;;;;;13.68;12.48;;;21.10;99.90;;;;;;5037385;28;20057;-28
2022/08/15 06:18:46;;;;;;;13.80;12.43;;;21.20;99.90;;;;;;5036760;28;20588;-26
2022/08/15 06:21:23;;;;;;;13.95;12.77;;;21.20;99.90;;;;;;5070053;28;20033;-26
2022/08/15 06:24:02;;;;;;;14.35;12.95;;;21.20;99.90;;;;;;5053321;28;20033;-26
2022/08/15 06:26:57;;;;;;;15.98;14.48;;;21.20;99.90;;;;;;5036626;28;20047;-26
2022/08/15 06:29:42;;;;;;;15.07;13.63;;;21.30;99.90;;;;;;5054531;28;20043;-27
2022/08/15 06:32:16;;;;;;;15.38;13.82;;;21.40;99.90;;;;;;5054887;28;20044;-25
2022/08/15 06:35:07;;;;;;;15.68;14.15;;;21.40;99.90;;;;;;5067279;28;20080;-29
2022/08/15 06:37:36;;;;;;;15.68;14.20;;;21.50;99.90;;;;;;5045210;28;20056;-25
2022/08/15 06:40:24;;;;;;;15.88;14.27;;;21.50;99.90;;;;;;5056342;28;20037;-26
2022/08/15 06:42:49;;;;;;;16.50;15.02;;;21.60;99.90;;;;;;5075053;28;20067;-26
2022/08/15 06:45:24;;;;;;;15.52;14.18;;;21.70;99.90;;;;;;5073737;28;20060;-27
2022/08/15 06:47:55;;;;;;;16.50;15.00;;;21.70;99.90;;;;;;5057028;28;20037;-25
2022/08/15 06:50:41;;;;;;;14.57;13.07;;;21.80;99.90;;;;;;5075044;28;20119;-26
2022/08/15 06:53:15;;;;;;;15.07;13.77;;;21.80;99.90;;;;;;5056768;28;20070;-26
2022/08/15 06:55:51;;;;;;;15.15;13.68;;;21.90;99.90;;;;;;5046118;28;20110;-28
2022/08/15 06:58:26;;;;;;;15.57;14.10;;;22.00;99.90;;;;;;5053313;28;20067;-25
2022/08/15 07:01:01;;;;;;;15.98;14.55;;;22.10;99.90;;;;;;5056284;28;20086;-29
2022/08/15 07:04:01;;;;;;;14.45;13.02;;;22.20;99.90;;;;;;5056649;28;20044;-26
2022/08/15 07:06:35;;;;;;;15.30;13.88;;;22.30;99.90;;;;;;5070335;28;20505;-25
2022/08/15 07:09:18;;;;;;;17.98;14.75;;;22.40;99.90;;;;;;5073031;28;20102;-27
2022/08/15 07:11:55;;;;;;;16.17;14.77;;;22.50;99.90;;;;;;5073273;28;20040;-26
2022/08/15 07:14:30;;;;;;;16.10;14.60;;;22.60;99.90;;;;;;5072627;28;20055;-27
2022/08/15 07:16:55;;;;;;;16.77;15.02;;;22.70;99.90;;;;;;5056819;28;20343;-27
2022/08/15 07:19:21;;;;;;;15.27;13.65;;;22.80;99.90;;;;;;5055576;28;20097;-29
2022/08/15 07:21:47;;;;;;;15.98;14.48;;;22.90;99.90;;;;;;5054984;28;20036;-26
2022/08/15 07:24:16;;;;;;;15.80;14.40;;;23.00;99.90;;;;;;5072525;28;20033;-26
2022/08/15 07:26:54;;;;;;;14.70;13.30;;;23.10;99.90;;;;;;5055726;28;20043;-26
2022/08/15 07:29:38;;;;;;;15.38;13.77;;;23.30;99.90;;;;;;5039271;28;20032;-27
2022/08/15 07:32:25;;;;;;;14.75;13.52;;;23.40;99.90;;;;;;5073514;28;20072;-26
2022/08/15 07:35:04;;;;;;;15.57;14.18;;;23.60;99.90;;;;;;5073871;28;20128;-27
2022/08/15 07:37:36;;;;;;;16.45;14.90;;;23.80;99.90;;;;;;5055513;28;20132;-26
2022/08/15 07:40:22;;;;;;;15.27;13.77;;;23.90;99.90;;;;;;5055515;28;20033;-29
2022/08/15 07:42:48;;;;;;;14.63;13.15;;;24.00;99.90;;;;;;5072587;28;20442;-28
2022/08/15 07:45:20;;;;;;;16.00;14.50;;;24.00;99.90;;;;;;5072488;28;20555;-28
2022/08/15 07:47:59;;;;;;;14.10;12.90;;;24.00;99.90;;;;;;5072120;28;20044;-29
2022/08/15 07:50:37;;;;;;;14.77;13.40;;;24.20;99.90;;;;;;5072168;28;20382;-27
2022/08/15 07:53:16;;;;;;;15.32;13.82;;;24.30;99.90;;;;;;5052091;28;20045;-27
2022/08/15 07:56:12;;;;;;;14.70;13.27;;;24.40;99.90;;;;;;5052615;28;20037;-28
2022/08/15 07:58:41;;;;;;;14.57;13.27;;;24.50;99.90;;;;;;5055790;28;20037;-28
2022/08/15 08:01:33;;;;;;;13.82;12.70;;;24.40;99.90;;;;;;5055739;28;20109;-26
2022/08/15 08:04:18;;;;;;;14.63;13.30;;;24.40;99.90;;;;;;5069379;28;20056;-26
2022/08/15 08:06:59;;;;;;;13.70;12.50;;;24.50;99.90;;;;;;5038810;28;20040;-28
2022/08/15 08:09:50;;;;;;;15.02;13.73;;;24.60;99.90;;;;;;5038901;28;20040;-30
2022/08/15 08:12:38;;;;;;;13.27;12.18;;;24.70;99.90;;;;;;5073639;28;20386;-27
2022/08/15 08:15:17;;;;;;;15.18;13.60;;;24.80;99.90;;;;;;5073539;28;20436;-27
2022/08/15 08:18:05;;;;;;;15.18;13.77;;;24.80;99.90;;;;;;5061752;28;20036;-26
2022/08/15 08:20:53;;;;;;;14.32;13.02;;;24.90;99.90;;;;;;5071964;28;20037;-27
2022/08/15 08:23:37;;;;;;;14.57;13.13;;;25.10;99.90;;;;;;5073099;28;20048;-28
2022/08/15 08:26:09;;;;;;;14.07;12.63;;;25.30;99.90;;;;;;5071605;28;20124;-28
2022/08/15 08:28:45;;;;;;;14.35;12.95;;;25.60;99.90;;;;;;5071943;28;20489;-28
2022/08/15 08:31:32;;;;;;;14.80;13.50;;;26.00;99.90;;;;;;5072529;28;20048;-28
2022/08/15 08:34:10;;;;;;;14.38;12.98;;;26.20;99.90;;;;;;5071796;28;20402;-26
2022/08/15 08:37:05;;;;;;;15.02;13.35;;;26.60;99.90;;;;;;5071524;28;20040;-29
2022/08/15 08:39:44;;;;;;;16.80;15.20;;;26.90;99.90;;;;;;5072602;28;20068;-27
2022/08/15 08:42:37;;;;;;;16.45;14.80;;;27.10;99.90;;;;;;5071129;28;20033;-27
2022/08/15 08:45:20;;;;;;;18.13;16.53;;;27.10;99.90;;;;;;5071631;28;20032;-32
2022/08/15 08:48:05;;;;;;;17.38;15.77;;;26.80;99.90;;;;;;5071639;28;20835;-28
2022/08/15 08:50:56;;;;;;;16.60;14.93;;;26.60;99.90;;;;;;5071253;28;20040;-27
2022/08/15 08:53:43;;;;;;;16.13;14.60;;;26.40;99.90;;;;;;5071360;28;20432;-28
2022/08/15 08:56:26;;;;;;;16.75;15.15;;;26.30;99.90;;;;;;5071113;28;20401;-29
2022/08/15 08:59:21;;;;;;;15.23;13.65;;;26.30;99.90;;;;;;5070993;28;20123;-27
2022/08/15 09:01:56;;;;;;;15.95;14.55;;;26.40;99.90;;;;;;5071276;28;20036;-27
2022/08/15 09:04:39;;;;;;;15.90;14.27;;;26.70;99.90;;;;;;5071386;28;20043;-26
2022/08/15 09:07:07;;;;;;;17.52;15.25;;;27.20;99.90;;;;;;5054447;28;20044;-28
2022/08/15 09:09:40;;;;;;;17.83;16.10;;;27.60;99.90;;;;;;5072359;28;20390;-27
2022/08/15 09:15:02;;;;;;;16.95;15.27;;;27.50;98.70;;;;;;5071892;28;20047;-28
2022/08/15 09:17:33;;;;;;;15.20;13.80;;;27.30;98.90;;;;;;5070434;28;20076;-29
2022/08/15 09:20:22;;;;;;;17.80;16.10;;;27.00;99.30;;;;;;5072197;28;20036;-28
2022/08/15 09:22:49;;;;;;;16.60;15.05;;;26.90;99.00;;;;;;5070577;28;20036;-28
2022/08/15 09:25:15;;;;;;;15.77;14.38;;;26.70;99.90;;;;;;5070566;28;20044;-28
2022/08/15 09:27:55;;;;;;;17.77;16.27;;;26.60;99.90;;;;;;5063879;28;20504;-27
2022/08/15 09:30:21;;;;;;;16.48;14.85;;;26.40;99.90;;;;;;5070550;28;20398;-27
2022/08/15 09:32:53;;;;;;;20.00;18.17;;;26.20;99.90;;;;;;5070608;28;20470;-28
2022/08/15 09:35:38;;;;;;;19.13;17.25;;;26.10;99.90;;;;;;5053615;28;20047;-26
2022/08/15 09:38:04;;;;;;;19.40;17.73;;;26.10;99.90;;;;;;5053508;28;20102;-29
2022/08/15 09:41:23;;;;;;;19.17;17.48;;;26.20;99.90;;;;;;5053432;28;20040;-26
2022/08/15 09:43:57;;;;;;;21.00;19.05;;;26.40;99.90;;;;;;4972607;28;20038;-29
2022/08/15 09:47:01;;;;;;;19.45;17.80;;;26.30;99.90;;;;;;5051747;28;20047;-26
2022/08/15 09:49:40;;;;;;;20.73;18.75;;;26.40;99.90;;;;;;5053486;28;20147;-28
2022/08/15 09:52:35;;;;;;;21.00;18.90;;;26.50;99.90;;;;;;5053506;28;20090;-27
2022/08/15 09:55:34;;;;;;;22.17;20.13;;;26.60;99.90;;;;;;5053578;28;20119;-29
2022/08/15 09:58:21;;;;;;;21.17;19.20;;;26.40;99.80;;;;;;5053544;28;20122;-28
2022/08/15 10:01:03;;;;;;;23.92;21.60;;;26.30;99.90;;;;;;5053863;28;20033;-26
2022/08/15 10:03:44;;;;;;;22.42;20.40;;;26.20;99.60;;;;;;5053356;28;20037;-27
2022/08/15 10:06:15;;;;;;;21.80;19.65;;;26.00;99.90;;;;;;5053779;28;20037;-28
2022/08/15 10:08:53;;;;;;;24.80;21.35;;;26.00;99.90;;;;;;5053846;28;20518;-29
2022/08/15 10:11:49;;;;;;;22.42;20.33;;;25.80;99.90;;;;;;5053810;28;20517;-28
2022/08/15 10:14:21;;;;;;;23.75;21.25;;;25.70;99.90;;;;;;5052889;28;20542;-27
2022/08/15 10:16:52;;;;;;;22.25;20.25;;;25.60;99.90;;;;;;5053341;28;20044;-28
2022/08/15 10:19:38;;;;;;;25.08;22.73;;;25.60;99.90;;;;;;5053312;28;20052;-29
2022/08/15 10:22:22;;;;;;;21.50;19.58;;;25.60;99.90;;;;;;5053796;28;20068;-28
2022/08/15 10:25:26;;;;;;;23.70;21.50;;;25.60;99.90;;;;;;5053379;28;20041;-28
2022/08/15 10:28:18;;;;;;;24.58;22.40;;;25.70;99.90;;;;;;5053543;28;20072;-28
2022/08/15 10:30:46;;;;;;;24.52;22.10;;;26.00;99.90;;;;;;5053575;28;20171;-29
2022/08/15 10:33:30;;;;;;;23.38;21.13;;;26.30;99.90;;;;;;5069892;28;20040;-28
2022/08/15 10:36:14;;;;;;;24.17;21.70;;;26.40;99.90;;;;;;5033026;28;20048;-28
2022/08/15 10:38:45;;;;;;;22.70;20.42;;;26.60;99.90;;;;;;5033409;28;20655;-29
2022/08/15 10:45:11;;;;;;;25.77;23.35;;;26.80;99.90;;;;;;5066588;28;20048;-33
2022/08/15 10:48:06;;;;;;;26.20;23.67;;;26.90;99.90;;;;;;5063625;28;20041;-31
2022/08/15 10:51:09;;;;;;;24.70;22.15;;;26.80;99.90;;;;;;5052142;28;20032;-31
2022/08/15 10:54:12;;;;;;;26.02;23.48;;;26.70;99.90;;;;;;4974831;28;20519;-30
2022/08/15 10:56:42;;;;;;;26.45;23.95;;;26.60;99.90;;;;;;5065978;28;20440;-30
2022/08/15 10:59:19;;;;;;;26.13;23.60;;;26.60;99.90;;;;;;5054863;28;20044;-32
2022/08/15 11:01:45;;;;;;;26.13;23.45;;;26.60;99.90;;;;;;5066883;28;20032;-31
2022/08/15 11:04:35;;;;;;;23.85;21.75;;;26.60;99.90;;;;;;5072000;28;20056;-29
2022/08/15 11:07:33;;;;;;;24.55;22.02;;;26.70;99.90;;;;;;5051187;28;20036;-33
2022/08/15 11:10:08;;;;;;;26.88;24.23;;;26.90;99.90;;;;;;5037942;28;20028;-31
2022/08/15 11:12:36;;;;;;;28.08;25.15;;;27.40;99.90;;;;;;5072498;28;20044;-31
2022/08/15 11:15:13;;;;;;;26.45;23.80;;;27.80;99.90;;;;;;5048728;28;20040;-31
2022/08/15 11:17:45;;;;;;;24.60;22.08;;;28.30;99.60;;;;;;5055532;28;20056;-32
2022/08/15 11:20:16;;;;;;;26.85;24.23;;;28.60;97.10;;;;;;5073443;28;20120;-32
2022/08/15 11:22:55;;;;;;;25.35;22.85;;;28.70;95.20;;;;;;5055593;28;20090;-31
2022/08/15 11:25:33;;;;;;;26.60;23.85;;;28.80;96.40;;;;;;5036408;28;20113;-32
2022/08/15 11:28:13;;;;;;;24.08;21.95;;;29.00;94.50;;;;;;5054314;28;20043;-31
2022/08/15 11:30:41;;;;;;;27.27;24.77;;;29.10;93.70;;;;;;5058879;28;20093;-32
2022/08/15 11:33:42;;;;;;;26.33;23.95;;;29.20;92.50;;;;;;5051827;28;20040;-31
2022/08/15 11:36:24;;;;;;;24.95;22.63;;;29.50;94.40;;;;;;5058526;28;20079;-32
2022/08/15 11:39:00;;;;;;;25.10;22.90;;;30.10;91.70;;;;;;5069253;28;20036;-30
2022/08/15 11:41:30;;;;;;;24.00;21.80;;;30.70;91.30;;;;;;5055002;28;20482;-31
2022/08/15 11:44:00;;;;;;;23.45;21.27;;;31.10;87.20;;;;;;5046290;28;20539;-33
2022/08/15 11:46:27;;;;;;;24.52;22.35;;;31.50;82.80;;;;;;5072127;28;20119;-32
2022/08/15 11:49:03;;;;;;;24.45;22.25;;;31.40;83.00;;;;;;5049802;28;20037;-33
2022/08/15 11:51:36;;;;;;;24.33;22.05;;;31.90;82.50;;;;;;5068218;28;20409;-31
2022/08/15 11:54:10;;;;;;;22.77;20.83;;;32.10;68.70;;;;;;5070796;28;20375;-31
2022/08/15 11:56:55;;;;;;;19.63;17.90;;;32.40;68.80;;;;;;5033171;28;20044;-30
2022/08/15 11:59:23;;;;;;;21.52;19.70;;;32.60;61.20;;;;;;5050462;28;20041;-32
2022/08/15 12:02:20;;;;;;;20.13;18.42;;;32.30;62.70;;;;;;5059204;28;20121;-30
2022/08/15 12:04:48;;;;;;;19.90;18.20;;;31.90;60.30;;;;;;5049895;28;20072;-33
2022/08/15 12:07:27;;;;;;;18.08;16.52;;;31.40;64.70;;;;;;5049840;28;20401;-32
2022/08/15 12:10:06;;;;;;;16.52;15.10;;;31.20;68.10;;;;;;5051715;28;20402;-31
2022/08/15 12:12:39;;;;;;;16.63;15.23;;;31.00;70.20;;;;;;5068877;28;20497;-31
2022/08/15 12:15:32;;;;;;;18.00;16.42;;;30.70;71.00;;;;;;5051234;28;20036;-30
2022/08/15 12:18:20;;;;;;;16.35;14.85;;;30.50;72.20;;;;;;5052178;28;20040;-31
2022/08/15 12:20:55;;;;;;;14.88;13.57;;;30.20;72.60;;;;;;5050230;28;20029;-33
2022/08/15 12:23:28;;;;;;;14.18;13.05;;;30.00;74.40;;;;;;5052061;28;20041;-35
2022/08/15 12:25:57;;;;;;;14.65;13.38;;;30.10;79.30;;;;;;5059953;28;20638;-32
2022/08/15 12:28:25;;;;;;;15.93;14.60;;;30.20;78.40;;;;;;5050784;28;20524;-31
2022/08/15 12:30:57;;;;;;;14.88;13.57;;;30.30;76.00;;;;;;5051960;28;20040;-32
2022/08/15 12:33:24;;;;;;;17.48;15.80;;;30.40;75.10;;;;;;5046342;28;20040;-32
2022/08/15 12:35:51;;;;;;;15.25;13.95;;;30.40;75.40;;;;;;5033959;28;20097;-30
2022/08/15 12:38:18;;;;;;;16.00;14.60;;;30.20;75.70;;;;;;5050505;28;20040;-31
2022/08/15 12:40:44;;;;;;;14.23;12.90;;;30.30;74.50;;;;;;5055385;28;20033;-32
2022/08/15 12:43:10;;;;;;;17.88;16.33;;;30.20;79.50;;;;;;5067850;28;20028;-29
2022/08/15 12:45:37;;;;;;;15.55;14.25;;;29.90;75.80;;;;;;5051181;28;20036;-30
2022/08/15 12:48:09;;;;;;;14.10;12.82;;;29.90;82.50;;;;;;5051511;28;20044;-30
2022/08/15 12:50:35;;;;;;;15.77;14.25;;;29.90;81.20;;;;;;5034248;28;21354;-31
2022/08/15 12:53:01;;;;;;;13.95;12.55;;;29.70;81.40;;;;;;5050390;28;20412;-31
2022/08/15 12:55:30;;;;;;;14.60;13.40;;;29.80;82.70;;;;;;5050938;28;20045;-30
2022/08/15 12:57:56;;;;;;;13.85;12.57;;;29.90;83.60;;;;;;5050057;28;20044;-32
2022/08/15 13:00:22;;;;;;;14.77;13.48;;;30.40;84.00;;;;;;5069672;28;20033;-32
2022/08/15 13:02:49;;;;;;;13.68;12.57;;;30.70;78.70;;;;;;5052627;28;20044;-31
2022/08/15 13:05:30;;;;;;;12.20;11.18;;;30.90;71.10;;;;;;5070202;28;20032;-29
2022/08/15 13:07:56;;;;;;;14.18;12.75;;;30.70;67.50;;;;;;5051832;28;20032;-32
2022/08/15 13:10:23;;;;;;;11.77;10.85;;;30.40;67.30;;;;;;5051347;28;20087;-31
2022/08/15 13:12:49;;;;;;;11.73;10.73;;;30.10;69.30;;;;;;5054248;28;20497;-29
2022/08/15 13:15:15;;;;;;;13.40;12.20;;;29.90;72.40;;;;;;5052736;28;20037;-33